createdAt,value
2023-01-25T00:00:33.672Z,57.10
2023-01-25T00:03:31.500Z,57.00
2023-01-25T00:06:29.219Z,56.40
2023-01-25T00:09:27.168Z,55.80
2023-01-25T00:12:24.868Z,55.70
2023-01-25T00:15:22.800Z,56.80
2023-01-25T00:18:20.608Z,56.40
2023-01-25T00:21:20.666Z,56.30
2023-01-25T00:24:18.777Z,56.90
2023-01-25T00:27:16.673Z,57.40
2023-01-25T00:30:14.580Z,57.60
2023-01-25T00:33:44.995Z,58.10
2023-01-25T00:36:45.136Z,57.90
2023-01-25T00:39:43.043Z,57.70
2023-01-25T00:42:41.348Z,57.70
2023-01-25T00:45:39.203Z,57.60
2023-01-25T00:48:37.029Z,58.00
2023-01-25T00:51:34.877Z,57.80
2023-01-25T00:54:32.608Z,57.10
2023-01-25T00:57:30.430Z,56.20
2023-01-25T01:00:28.258Z,55.50
2023-01-25T01:03:26.245Z,56.20
2023-01-25T01:06:23.954Z,55.80
2023-01-25T01:09:23.169Z,56.40
2023-01-25T01:12:21.108Z,56.90
2023-01-25T01:15:18.896Z,57.60
2023-01-25T01:18:16.571Z,58.00
2023-01-25T01:21:14.804Z,56.40
2023-01-25T01:24:12.575Z,56.20
2023-01-25T01:27:10.548Z,56.20
2023-01-25T01:30:08.884Z,57.10
2023-01-25T01:33:07.171Z,56.40
2023-01-25T01:36:11.727Z,55.90
2023-01-25T01:39:10.008Z,56.40
2023-01-25T01:42:07.673Z,57.20
2023-01-25T01:45:40.720Z,56.70
2023-01-25T01:48:49.613Z,56.40
2023-01-25T01:51:56.815Z,56.10
2023-01-25T01:55:03.656Z,56.60
2023-01-25T01:58:04.098Z,57.30
2023-01-25T02:01:02.104Z,56.90
2023-01-25T02:04:00.903Z,56.70
2023-01-25T02:07:06.402Z,56.60
2023-01-25T02:10:08.179Z,57.00
2023-01-25T02:13:05.877Z,57.00
2023-01-25T02:16:05.332Z,58.10
2023-01-25T02:19:04.229Z,58.00
2023-01-25T02:22:08.348Z,57.00
2023-01-25T02:25:09.667Z,56.90
2023-01-25T02:28:17.463Z,57.00
2023-01-25T02:31:15.412Z,56.90
2023-01-25T02:34:13.340Z,56.50
2023-01-25T02:37:15.553Z,56.70
2023-01-25T02:40:13.587Z,56.50
2023-01-25T02:43:11.445Z,57.10
2023-01-25T02:46:18.596Z,55.60
2023-01-25T02:49:17.742Z,55.40
2023-01-25T02:52:15.477Z,55.20
2023-01-25T02:55:13.532Z,55.90
2023-01-25T02:58:11.360Z,56.00
2023-01-25T03:01:09.837Z,56.20
2023-01-25T03:04:08.384Z,55.60
2023-01-25T03:07:06.157Z,55.20
2023-01-25T03:10:04.002Z,55.20
2023-01-25T03:13:01.848Z,54.80
2023-01-25T03:16:03.818Z,54.10
2023-01-25T03:19:01.530Z,54.30
2023-01-25T03:21:59.624Z,53.00
2023-01-25T03:24:57.772Z,52.90
2023-01-25T03:27:56.878Z,52.80
2023-01-25T03:30:56.266Z,52.70
2023-01-25T03:33:54.063Z,52.70
2023-01-25T03:36:54.046Z,52.60
2023-01-25T03:39:51.954Z,52.80
2023-01-25T03:42:49.629Z,52.60
2023-01-25T03:45:52.082Z,52.90
2023-01-25T03:48:49.743Z,51.80
2023-01-25T03:51:47.469Z,51.30
2023-01-25T03:54:45.163Z,50.60
2023-01-25T03:57:43.140Z,50.70
2023-01-25T04:00:40.819Z,50.80
2023-01-25T04:03:39.147Z,50.10
2023-01-25T04:06:36.961Z,49.40
2023-01-25T04:09:35.031Z,48.60
2023-01-25T04:12:32.932Z,48.80
2023-01-25T04:15:31.109Z,48.30
2023-01-25T04:18:28.931Z,48.20
2023-01-25T04:21:27.425Z,47.80
2023-01-25T04:24:25.269Z,47.60
2023-01-25T04:27:23.097Z,46.70
2023-01-25T04:30:21.036Z,47.30
2023-01-25T04:33:18.864Z,47.70
2023-01-25T04:36:16.722Z,47.20
2023-01-25T04:39:14.718Z,47.40
2023-01-25T04:42:12.523Z,46.80
2023-01-25T04:45:11.243Z,46.00
2023-01-25T04:48:11.900Z,44.20
2023-01-25T04:51:10.041Z,43.20
2023-01-25T04:54:07.731Z,42.10
2023-01-25T04:57:06.052Z,44.10
2023-01-25T05:00:04.181Z,44.30
2023-01-25T05:03:02.000Z,45.00
2023-01-25T05:05:59.981Z,45.10
2023-01-25T05:08:57.752Z,45.30
2023-01-25T05:11:55.674Z,46.40
2023-01-25T05:14:53.514Z,46.60
2023-01-25T05:17:51.245Z,48.80
2023-01-25T05:20:49.061Z,49.50
2023-01-25T05:23:46.692Z,52.10
2023-01-25T05:26:59.977Z,53.10
2023-01-25T05:29:58.269Z,53.50
2023-01-25T05:32:56.026Z,54.00
2023-01-25T05:35:54.289Z,54.30
2023-01-25T05:38:53.517Z,54.90
2023-01-25T05:41:51.535Z,54.30
2023-01-25T05:44:49.681Z,54.50
2023-01-25T05:47:47.360Z,53.30
2023-01-25T05:50:45.114Z,52.40
2023-01-25T05:53:42.993Z,51.00
2023-01-25T05:56:40.959Z,51.70
2023-01-25T05:59:39.443Z,51.30
2023-01-25T06:02:37.637Z,51.30
2023-01-25T06:05:35.382Z,51.00
2023-01-25T06:08:33.524Z,48.70
2023-01-25T06:11:31.255Z,49.90
2023-01-25T06:14:29.135Z,48.20
2023-01-25T06:17:27.059Z,50.40
2023-01-25T06:20:24.925Z,49.80
2023-01-25T06:23:22.765Z,52.00
2023-01-25T06:26:20.573Z,53.60
2023-01-25T06:29:19.263Z,53.20
2023-01-25T06:32:17.164Z,50.60
2023-01-25T06:35:15.226Z,53.80
2023-01-25T06:38:13.142Z,56.20
2023-01-25T06:41:13.286Z,55.00
2023-01-25T06:44:13.062Z,55.80
2023-01-25T06:47:10.857Z,54.80
2023-01-25T06:50:09.958Z,54.20
2023-01-25T06:53:07.627Z,53.90
2023-01-25T06:56:11.613Z,53.00
2023-01-25T06:59:09.638Z,52.70
2023-01-25T07:02:07.978Z,52.30
2023-01-25T07:05:06.025Z,50.30
2023-01-25T07:08:03.894Z,50.70
2023-01-25T07:11:05.880Z,49.50
2023-01-25T07:14:06.687Z,48.90
2023-01-25T07:17:04.584Z,50.00
2023-01-25T07:20:02.381Z,51.70
2023-01-25T07:23:02.183Z,51.50
2023-01-25T07:26:01.208Z,53.60
2023-01-25T07:29:00.152Z,49.60
2023-01-25T07:31:58.310Z,49.90
2023-01-25T07:34:56.068Z,50.50
2023-01-25T07:37:53.860Z,50.80
2023-01-25T07:40:53.877Z,50.50
2023-01-25T07:43:51.984Z,50.40
2023-01-25T07:46:54.789Z,50.00
2023-01-25T07:49:52.871Z,48.90
2023-01-25T07:52:50.555Z,49.60
2023-01-25T07:55:48.382Z,49.30
2023-01-25T07:58:46.965Z,48.00
2023-01-25T08:01:44.884Z,51.90
2023-01-25T08:04:43.025Z,49.80
2023-01-25T08:07:40.875Z,49.30
2023-01-25T08:10:39.772Z,49.90
2023-01-25T08:13:39.041Z,49.80
2023-01-25T08:16:39.260Z,49.50
2023-01-25T08:19:37.485Z,49.60
2023-01-25T08:22:35.243Z,49.10
2023-01-25T08:25:33.107Z,48.00
2023-01-25T08:28:31.103Z,47.80
2023-01-25T08:31:31.677Z,48.00
2023-01-25T08:34:31.727Z,47.80
2023-01-25T08:37:30.398Z,47.00
2023-01-25T08:40:28.260Z,46.60
2023-01-25T08:43:26.101Z,46.80
2023-01-25T08:46:28.631Z,45.80
2023-01-25T08:49:28.485Z,46.20
2023-01-25T08:52:26.147Z,45.90
2023-01-25T08:55:25.099Z,47.50
2023-01-25T08:58:23.223Z,45.80
2023-01-25T09:01:22.202Z,45.30
2023-01-25T09:04:20.058Z,45.00
2023-01-25T09:07:18.102Z,45.10
2023-01-25T09:10:15.832Z,47.80
2023-01-25T09:13:17.746Z,46.20
2023-01-25T09:16:20.347Z,46.80
2023-01-25T09:19:18.337Z,47.00
2023-01-25T09:22:15.979Z,46.50
2023-01-25T09:25:13.901Z,46.80
2023-01-25T09:28:12.362Z,46.80
2023-01-25T09:31:21.733Z,47.60
2023-01-25T09:34:20.934Z,48.70
2023-01-25T09:37:19.637Z,49.70
2023-01-25T09:40:24.786Z,54.50
2023-01-25T09:43:49.810Z,56.20
2023-01-25T09:46:56.697Z,57.40
2023-01-25T09:50:25.140Z,56.50
2023-01-25T09:53:40.660Z,55.80
2023-01-25T09:56:40.355Z,56.20
2023-01-25T09:59:41.381Z,57.90
2023-01-25T10:02:50.816Z,58.10
2023-01-25T10:05:51.114Z,57.60
2023-01-25T10:09:12.827Z,58.50
2023-01-25T10:12:21.976Z,58.70
2023-01-25T10:15:23.324Z,58.60
2023-01-25T10:18:56.224Z,59.40
2023-01-25T10:22:01.821Z,59.60
2023-01-25T10:25:05.962Z,58.30
2023-01-25T10:28:25.408Z,58.80
2023-01-25T10:31:34.313Z,59.10
2023-01-25T10:34:54.978Z,58.90
2023-01-25T10:37:54.453Z,59.30
2023-01-25T10:41:01.131Z,58.80
2023-01-25T10:44:14.403Z,58.60
2023-01-25T10:47:27.033Z,59.10
2023-01-25T10:50:46.795Z,59.00
2023-01-25T10:53:44.844Z,58.60
2023-01-25T10:56:44.895Z,58.50
2023-01-25T10:59:47.650Z,58.70
2023-01-25T11:02:47.718Z,58.40
2023-01-25T11:05:55.441Z,58.70
2023-01-25T11:08:53.195Z,59.30
2023-01-25T11:12:14.618Z,59.70
2023-01-25T11:15:27.725Z,59.50
2023-01-25T11:18:27.804Z,60.40
2023-01-25T11:21:28.666Z,60.90
2023-01-25T11:24:29.577Z,61.80
2023-01-25T11:27:29.787Z,61.80
2023-01-25T11:30:27.605Z,62.00
2023-01-25T11:33:27.343Z,62.00
2023-01-25T11:36:39.289Z,62.30
2023-01-25T11:40:03.256Z,63.00
2023-01-25T11:43:31.824Z,63.30
2023-01-25T11:46:48.821Z,63.70
2023-01-25T11:50:18.373Z,64.60
2023-01-25T11:53:34.686Z,64.60
2023-01-25T11:57:01.110Z,64.70
2023-01-25T12:00:11.852Z,64.90
2023-01-25T12:03:37.731Z,65.10
2023-01-25T12:07:04.745Z,65.70
2023-01-25T12:10:21.448Z,65.70
2023-01-25T12:13:42.071Z,65.40
2023-01-25T12:17:15.422Z,65.70
2023-01-25T12:20:41.322Z,65.60
2023-01-25T12:24:05.213Z,66.00
2023-01-25T12:27:21.312Z,66.30
2023-01-25T12:30:40.430Z,66.00
2023-01-25T12:33:48.667Z,66.10
2023-01-25T12:36:49.560Z,67.10
2023-01-25T12:40:03.162Z,67.10
2023-01-25T12:43:03.591Z,67.10
2023-01-25T12:46:07.887Z,67.40
2023-01-25T12:49:16.328Z,67.70
2023-01-25T12:52:40.483Z,67.50
2023-01-25T12:55:38.645Z,67.70
2023-01-25T12:58:49.019Z,67.40
2023-01-25T13:01:55.582Z,66.30
2023-01-25T13:05:11.056Z,67.10
2023-01-25T13:08:31.981Z,67.20
2023-01-25T13:11:46.751Z,67.50
2023-01-25T13:14:44.961Z,68.10
2023-01-25T13:17:42.963Z,68.70
2023-01-25T13:20:54.032Z,69.00
2023-01-25T13:24:13.145Z,68.40
2023-01-25T13:27:29.502Z,67.60
2023-01-25T13:30:33.042Z,68.40
2023-01-25T13:33:36.509Z,67.90
2023-01-25T13:36:39.209Z,67.50
2023-01-25T13:39:56.898Z,67.70
2023-01-25T13:43:23.110Z,67.80
2023-01-25T13:46:25.634Z,68.30
2023-01-25T13:49:29.207Z,68.40
2023-01-25T13:52:28.992Z,68.50
2023-01-25T13:55:30.438Z,68.40
2023-01-25T13:58:33.855Z,68.10
2023-01-25T14:01:32.509Z,67.70
2023-01-25T14:04:32.634Z,68.00
2023-01-25T14:07:34.199Z,67.90
2023-01-25T14:10:33.293Z,67.80
2023-01-25T14:13:31.345Z,68.10
2023-01-25T14:16:31.451Z,72.00
2023-01-25T14:19:31.690Z,72.60
2023-01-25T14:22:33.366Z,72.10
2023-01-25T14:25:31.350Z,71.10
2023-01-25T14:28:31.205Z,70.80
2023-01-25T14:31:36.281Z,71.10
2023-01-25T14:34:34.608Z,70.80
2023-01-25T14:37:32.500Z,71.20
2023-01-25T14:40:32.020Z,70.90
2023-01-25T14:43:31.780Z,71.30
2023-01-25T14:46:35.229Z,70.90
2023-01-25T14:49:33.605Z,70.90
2023-01-25T14:52:32.211Z,70.60
2023-01-25T14:55:30.295Z,70.40
2023-01-25T14:59:01.290Z,70.30
2023-01-25T15:02:25.332Z,70.40
2023-01-25T15:05:28.607Z,69.60
2023-01-25T15:08:29.717Z,68.60
2023-01-25T15:11:38.882Z,68.30
2023-01-25T15:14:50.461Z,67.90
2023-01-25T15:17:51.801Z,67.90
2023-01-25T15:20:50.160Z,67.10
2023-01-25T15:23:50.365Z,66.90
2023-01-25T15:26:51.955Z,67.30
2023-01-25T15:29:51.386Z,67.20
2023-01-25T15:32:50.226Z,67.10
2023-01-25T15:35:48.943Z,67.30
2023-01-25T15:38:47.556Z,67.10
2023-01-25T15:41:48.162Z,67.40
2023-01-25T15:44:46.084Z,67.30
2023-01-25T15:47:44.150Z,67.50
2023-01-25T15:50:43.044Z,67.30
2023-01-25T15:53:41.418Z,68.00
2023-01-25T15:56:42.493Z,67.90
2023-01-25T15:59:45.395Z,67.60
2023-01-25T16:02:44.022Z,68.90
2023-01-25T16:05:42.241Z,69.40
2023-01-25T16:08:40.658Z,70.00
2023-01-25T16:11:38.941Z,70.40
2023-01-25T16:14:36.832Z,69.60
2023-01-25T16:17:35.660Z,69.90
2023-01-25T16:20:34.033Z,70.30
2023-01-25T16:23:32.092Z,69.90
2023-01-25T16:26:30.297Z,69.70
2023-01-25T16:29:30.389Z,69.40
2023-01-25T16:32:28.719Z,69.50
2023-01-25T16:35:27.273Z,69.40
2023-01-25T16:38:25.196Z,69.80
2023-01-25T16:41:24.506Z,70.60
2023-01-25T16:44:22.511Z,70.30
2023-01-25T16:47:20.795Z,69.90
2023-01-25T16:50:21.442Z,69.10
2023-01-25T16:53:19.661Z,69.30
2023-01-25T16:56:23.152Z,69.10
2023-01-25T16:59:21.592Z,69.50
2023-01-25T17:05:41.084Z,69.90
2023-01-25T17:08:39.038Z,70.40
2023-01-25T17:11:39.100Z,70.20
2023-01-25T17:14:37.117Z,70.60
2023-01-25T17:17:36.601Z,71.00
2023-01-25T17:20:34.574Z,70.90
2023-01-25T17:23:34.535Z,69.80
2023-01-25T17:26:33.579Z,70.10
2023-01-25T17:29:32.112Z,70.70
2023-01-25T17:32:30.721Z,71.10
2023-01-25T17:35:28.913Z,71.40
2023-01-25T17:38:27.016Z,72.00
2023-01-25T17:41:26.407Z,71.40
2023-01-25T17:44:27.767Z,70.40
2023-01-25T17:47:25.954Z,70.90
2023-01-25T17:50:24.179Z,70.10
2023-01-25T17:53:22.242Z,69.60
2023-01-25T17:56:20.736Z,69.60
2023-01-25T17:59:19.221Z,70.00
2023-01-25T18:02:17.263Z,70.30
2023-01-25T18:05:16.439Z,70.90
2023-01-25T18:08:14.395Z,70.00
2023-01-25T18:11:16.017Z,69.10
2023-01-25T18:14:17.924Z,68.70
2023-01-25T18:17:15.796Z,69.30
2023-01-25T18:20:13.938Z,68.50
2023-01-25T18:23:11.972Z,68.30
2023-01-25T18:26:19.673Z,68.70
2023-01-25T18:29:40.000Z,69.70
2023-01-25T18:32:37.933Z,69.00
2023-01-25T18:35:36.162Z,70.30
2023-01-25T18:38:33.947Z,70.00
2023-01-25T18:41:32.116Z,70.20
2023-01-25T18:44:30.490Z,70.00
2023-01-25T18:47:28.918Z,70.50
2023-01-25T18:50:27.785Z,70.60
2023-01-25T18:53:28.051Z,71.20
2023-01-25T18:56:27.757Z,71.20
2023-01-25T18:59:25.867Z,69.80
2023-01-25T19:02:24.291Z,69.40
2023-01-25T19:05:22.364Z,67.50
2023-01-25T19:08:21.141Z,66.10
2023-01-25T19:11:20.664Z,65.40
2023-01-25T19:14:18.641Z,65.30
2023-01-25T19:17:16.425Z,65.10
2023-01-25T19:20:14.134Z,65.10
2023-01-25T19:23:12.275Z,65.10
2023-01-25T19:26:13.911Z,64.20
2023-01-25T19:29:13.843Z,64.70
2023-01-25T19:32:11.687Z,64.40
2023-01-25T19:35:09.885Z,64.90
2023-01-25T19:38:07.870Z,65.60
2023-01-25T19:41:07.662Z,65.60
2023-01-25T19:44:07.635Z,63.90
2023-01-25T19:47:06.308Z,64.00
2023-01-25T19:50:04.405Z,64.30
2023-01-25T19:53:03.222Z,64.30
2023-01-25T19:56:03.924Z,64.00
2023-01-25T19:59:04.779Z,63.60
2023-01-25T20:02:02.942Z,63.40
2023-01-25T20:05:00.859Z,63.60
2023-01-25T20:07:58.560Z,63.60
2023-01-25T20:45:19.594Z,64.10
2023-01-25T20:48:17.346Z,64.10
2023-01-25T20:51:17.513Z,64.40
2023-01-25T20:54:16.631Z,64.20
2023-01-25T20:57:14.696Z,64.20
2023-01-25T21:00:14.220Z,63.70
2023-01-25T21:03:12.104Z,64.10
2023-01-25T21:06:10.927Z,64.90
2023-01-25T21:09:08.839Z,65.20
2023-01-25T21:12:06.769Z,65.20
2023-01-25T21:15:05.149Z,67.90
2023-01-25T21:18:03.401Z,67.80
2023-01-25T21:21:04.414Z,67.20
2023-01-25T21:24:03.266Z,67.30
2023-01-25T21:27:01.062Z,68.20
2023-01-25T21:29:59.164Z,68.00
2023-01-25T21:32:57.143Z,68.10
2023-01-25T21:35:56.137Z,68.20
2023-01-25T21:38:55.634Z,67.60
2023-01-25T21:41:53.309Z,66.70
2023-01-25T21:45:06.358Z,67.10
2023-01-25T21:48:04.090Z,66.50
2023-01-25T21:51:17.442Z,67.20
2023-01-25T21:54:16.167Z,66.90
2023-01-25T21:57:13.918Z,66.50
2023-01-25T22:00:12.755Z,66.20
2023-01-25T22:03:10.582Z,66.00
2023-01-25T22:06:08.262Z,66.90
2023-01-25T22:09:06.334Z,67.10
2023-01-25T22:12:04.345Z,67.90
2023-01-25T22:15:03.947Z,68.40
2023-01-25T22:18:05.516Z,69.00
2023-01-25T22:21:05.973Z,69.30
2023-01-25T22:24:06.324Z,68.90
2023-01-25T22:27:29.877Z,67.90
2023-01-25T22:30:27.675Z,67.90
2023-01-25T22:33:25.453Z,67.40
2023-01-25T22:36:24.908Z,66.70
2023-01-25T22:39:22.756Z,66.50
2023-01-25T22:42:20.503Z,66.00
2023-01-25T22:45:18.427Z,65.50
2023-01-25T22:48:16.064Z,65.70
2023-01-25T22:51:17.603Z,65.90
2023-01-25T22:54:15.415Z,65.10
2023-01-25T22:57:13.218Z,65.30
2023-01-25T23:00:11.970Z,65.10
2023-01-25T23:03:10.203Z,65.10
2023-01-25T23:06:13.206Z,64.80
2023-01-25T23:09:11.345Z,66.10
2023-01-25T23:12:09.048Z,66.90
2023-01-25T23:15:07.659Z,67.70
2023-01-25T23:18:25.467Z,68.00
2023-01-25T23:21:31.520Z,67.80
2023-01-25T23:24:29.293Z,66.70
2023-01-25T23:27:27.026Z,66.40
2023-01-25T23:30:24.691Z,67.00
2023-01-25T23:33:22.435Z,66.80
2023-01-25T23:36:25.463Z,66.40
2023-01-25T23:39:24.357Z,66.40
2023-01-25T23:42:22.032Z,65.60
2023-01-25T23:45:19.865Z,66.30
2023-01-25T23:48:17.441Z,66.30
2023-01-25T23:51:16.788Z,66.30
2023-01-25T23:54:14.534Z,66.60
2023-01-25T23:57:12.479Z,66.60
